Time;durP1;ratioP1;P1;durP2;ratioP2;P2;SDS_P1;SDS_P2;PMS_P1;PMS_P2;Temp;Humidity;BMP_temperature;BMP_pressure;BME280_temperature;BME280_humidity;BME280_pressure;Samples;Min_cycle;Max_cycle;Signal;HPM_P1;HPM_P2
2022/10/05 00:03:19;;;;;;;0.10;0.10;;;;;;;-145.16;100.00;77781.64;645190;218;32309;-73
2022/10/05 00:09:19;;;;;;;0.47;0.47;;;;;;;-145.16;100.00;77782.66;645178;217;32360;-73
2022/10/05 00:15:23;;;;;;;0.00;0.00;;;;;;;-145.16;100.00;77772.59;645175;217;32657;-73
2022/10/05 00:21:25;;;;;;;0.10;0.10;;;;;;;-145.16;100.00;77825.95;645191;217;32321;-73
2022/10/05 00:27:25;;;;;;;0.17;0.17;;;;;;;-145.16;100.00;77809.84;645182;217;53795;-73
2022/10/05 00:33:26;;;;;;;0.50;0.50;;;;;;;-145.16;100.00;77790.70;653694;217;32593;-73
2022/10/05 00:39:26;;;;;;;0.10;0.10;;;;;;;-145.16;100.00;77780.64;645181;217;32386;-73
2022/10/05 00:45:38;;;;;;;0.10;0.10;;;;;;;-145.16;100.00;77770.57;645175;217;43095;-73
2022/10/05 00:51:41;;;;;;;0.10;0.10;;;;;;;-145.16;100.00;77786.68;645043;217;33330;-73
2022/10/05 00:57:41;;;;;;;0.20;0.20;;;;;;;-145.16;100.00;77794.73;645272;217;32936;-73
2022/10/05 01:03:44;;;;;;;0.75;0.75;;;;;;;-145.16;100.00;77798.77;645029;217;32364;-73
2022/10/05 01:09:44;;;;;;;0.10;0.10;;;;;;;-145.16;100.00;77800.77;653679;217;32371;-72
2022/10/05 01:15:44;;;;;;;0.52;0.52;;;;;;;-145.16;100.00;77840.05;653685;217;32371;-73
2022/10/05 01:21:45;;;;;;;0.10;0.10;;;;;;;-145.16;100.00;77839.03;645175;217;32369;-73
2022/10/05 01:27:48;;;;;;;0.10;0.10;;;;;;;-145.16;100.00;77814.88;645206;217;32348;-73
2022/10/05 01:33:49;;;;;;;0.57;0.57;;;;;;;-145.16;100.00;77808.83;653687;217;32342;-73
2022/10/05 01:39:52;;;;;;;0.50;0.50;;;;;;;-145.16;100.00;77827.96;645019;217;32389;-73
2022/10/05 01:45:54;;;;;;;2.40;2.00;;;;;;;-145.16;100.00;77878.30;645169;217;32429;-73
2022/10/05 01:51:56;;;;;;;2.22;1.02;;;;;;;-145.16;100.00;77893.41;653697;217;32347;-73
2022/10/05 01:57:58;;;;;;;1.08;1.08;;;;;;;-145.16;100.00;77903.48;645173;217;43067;-73
2022/10/05 02:03:59;;;;;;;1.17;1.08;;;;;;;-145.16;100.00;77919.59;630550;221;32706;-73
2022/10/05 02:10:01;;;;;;;1.50;1.40;;;;;;;-145.16;100.00;77889.38;644998;217;43098;-73
2022/10/05 02:16:01;;;;;;;0.75;0.75;;;;;;;-145.16;100.00;77906.50;645166;217;32638;-73
2022/10/05 02:22:02;;;;;;;3.25;1.42;;;;;;;-145.16;100.00;77902.47;645263;217;35230;-72
2022/10/05 02:28:02;;;;;;;2.60;1.40;;;;;;;-145.16;100.00;77897.44;653691;218;33349;-73
2022/10/05 02:34:02;;;;;;;2.50;2.05;;;;;;;-145.16;100.00;77902.47;645181;217;43101;-72
2022/10/05 02:40:04;;;;;;;2.60;1.40;;;;;;;-145.16;100.00;77883.34;645190;217;35359;-73
2022/10/05 02:46:05;;;;;;;0.03;0.03;;;;;;;-145.16;100.00;77821.92;650711;217;29393;-73
2022/10/05 02:52:09;;;;;;;0.80;0.80;;;;;;;-145.16;100.00;77822.92;653638;217;32376;-73
2022/10/05 02:58:12;;;;;;;0.52;0.52;;;;;;;-145.16;100.00;77811.85;653664;217;32385;-73
2022/10/05 03:04:14;;;;;;;0.30;0.30;;;;;;;-145.16;100.00;77785.67;645015;217;32629;-72
2022/10/05 03:10:16;;;;;;;0.77;0.77;;;;;;;-145.16;100.00;77783.66;645181;217;33354;-73
2022/10/05 03:16:16;;;;;;;0.30;0.30;;;;;;;-145.16;100.00;77770.57;653663;217;32429;-73
2022/10/05 03:22:20;;;;;;;0.52;0.52;;;;;;;-145.16;100.00;77745.40;653668;217;32323;-72
2022/10/05 03:28:30;;;;;;;0.20;0.20;;;;;;;-145.16;100.00;77756.48;645172;218;32319;-73
2022/10/05 03:34:31;;;;;;;0.10;0.10;;;;;;;-145.16;100.00;77718.22;645173;217;32379;-73
2022/10/05 03:40:33;;;;;;;0.10;0.10;;;;;;;-145.16;100.00;77723.25;653774;218;33323;-73
2022/10/05 03:46:36;;;;;;;0.20;0.20;;;;;;;-145.16;100.00;77719.22;653693;217;43359;-73
2022/10/05 03:52:36;;;;;;;2.05;1.92;;;;;;;-145.16;100.00;77721.23;653676;217;43046;-73
2022/10/05 03:58:38;;;;;;;0.40;0.40;;;;;;;-145.16;100.00;77695.06;653649;217;32368;-72
2022/10/05 04:04:39;;;;;;;1.55;1.45;;;;;;;-145.16;100.00;77700.09;645166;218;32328;-73
2022/10/05 04:10:41;;;;;;;0.15;0.15;;;;;;;-145.16;100.00;77664.86;645177;217;43123;-73
2022/10/05 04:16:41;;;;;;;1.00;1.00;;;;;;;-145.16;100.00;77665.86;645174;217;32357;-73
2022/10/05 04:22:41;;;;;;;0.57;0.57;;;;;;;-145.16;100.00;77668.88;645180;217;43083;-73
2022/10/05 04:28:43;;;;;;;0.57;0.57;;;;;;;-145.16;100.00;77652.77;645044;218;32583;-73
2022/10/05 04:34:51;;;;;;;0.35;0.35;;;;;;;-145.16;100.00;77630.63;645168;217;32414;-73
2022/10/05 04:40:52;;;;;;;0.10;0.10;;;;;;;-145.16;100.00;77623.58;653670;217;32382;-73
2022/10/05 04:46:54;;;;;;;0.10;0.10;;;;;;;-145.16;100.00;77619.55;645184;217;43005;-73
2022/10/05 04:52:57;;;;;;;0.25;0.25;;;;;;;-145.16;100.00;77613.51;645174;217;32707;-73
2022/10/05 04:58:59;;;;;;;0.60;0.60;;;;;;;-145.16;100.00;77649.75;645166;218;32399;-73
2022/10/05 05:05:04;;;;;;;0.50;0.50;;;;;;;-145.16;100.00;77702.11;653627;217;32641;-73
2022/10/05 05:11:05;;;;;;;0.45;0.45;;;;;;;-145.16;100.00;77699.09;638684;217;32607;-73
2022/10/05 05:14:17;;;;;;;1.55;0.47;;;;;;;-145.16;100.00;77678.95;632485;226;22715;-73
2022/10/05 05:19:59;;;;;;;0.40;0.40;;;;;;;-145.16;100.00;77679.95;645186;217;32443;-73
2022/10/05 05:26:03;;;;;;;0.37;0.37;;;;;;;-145.16;100.00;77676.94;653660;217;43034;-72
2022/10/05 05:32:03;;;;;;;0.00;0.00;;;;;;;-145.16;100.00;77670.89;645177;217;32418;-78
2022/10/05 05:38:07;;;;;;;0.70;0.70;;;;;;;-145.16;100.00;77634.66;645192;217;32330;-77
2022/10/05 05:44:08;;;;;;;1.00;1.00;;;;;;;-145.16;100.00;77635.66;653664;217;32426;-78
2022/10/05 05:50:09;;;;;;;0.20;0.20;;;;;;;-145.16;100.00;77617.53;645132;217;32364;-78
2022/10/05 05:56:12;;;;;;;0.20;0.20;;;;;;;-145.16;100.00;77598.41;653671;217;32397;-78
2022/10/05 06:02:12;;;;;;;0.30;0.30;;;;;;;-145.16;100.00;77598.41;645131;217;32346;-78
2022/10/05 06:08:14;;;;;;;0.50;0.32;;;;;;;-145.16;100.00;77582.30;645010;217;32411;-73
2022/10/05 06:14:15;;;;;;;0.10;0.10;;;;;;;-145.16;100.00;77578.27;645202;218;43052;-73
2022/10/05 06:20:15;;;;;;;0.30;0.30;;;;;;;-145.16;100.00;77589.34;645208;217;32352;-73
2022/10/05 06:26:17;;;;;;;0.30;0.30;;;;;;;-145.16;100.00;77609.48;645072;217;32373;-73
2022/10/05 06:32:18;;;;;;;0.47;0.47;;;;;;;-145.16;100.00;77589.34;645068;217;32425;-72
2022/10/05 06:38:20;;;;;;;0.10;0.10;;;;;;;-145.16;100.00;77615.52;645170;217;32463;-73
2022/10/05 06:44:21;;;;;;;0.10;0.10;;;;;;;-145.16;100.00;77585.31;645173;217;32333;-73
2022/10/05 06:50:22;;;;;;;1.02;0.85;;;;;;;-145.16;100.00;77617.53;645185;217;32353;-72
2022/10/05 06:56:26;;;;;;;0.20;0.20;;;;;;;-145.16;100.00;77587.33;653670;217;32312;-73
2022/10/05 07:02:26;;;;;;;0.10;0.10;;;;;;;-145.16;100.00;77596.39;644708;217;32335;-73
2022/10/05 07:05:38;;;;;;;0.10;0.10;;;;;;;-145.16;100.00;77581.30;632831;226;22705;-73
2022/10/05 07:11:20;;;;;;;0.10;0.10;;;;;;;-145.16;100.00;77607.47;645151;217;32650;-72
2022/10/05 07:17:29;;;;;;;0.10;0.10;;;;;;;-145.16;100.00;77630.63;643026;217;32553;-73
2022/10/05 07:23:31;;;;;;;0.43;0.43;;;;;;;-145.16;100.00;77600.42;645169;217;43068;-73
2022/10/05 07:29:33;;;;;;;0.57;0.45;;;;;;;-145.16;100.00;77621.56;653411;217;32386;-73
2022/10/05 07:41:59;;;;;;;0.80;0.80;;;;;;;-145.16;100.00;77597.40;645017;217;43171;-72
2022/10/05 07:47:59;;;;;;;0.50;0.40;;;;;;;-145.16;100.00;77651.77;653700;217;32303;-72
2022/10/05 07:54:04;;;;;;;0.10;0.10;;;;;;;-145.16;100.00;77611.50;653686;217;32338;-73
2022/10/05 08:00:05;;;;;;;0.10;0.10;;;;;;;-145.16;100.00;77587.33;645180;217;32379;-73
2022/10/05 08:06:08;;;;;;;0.80;0.80;;;;;;;-145.16;100.00;77559.14;653697;217;32356;-73
2022/10/05 08:12:09;;;;;;;0.30;0.30;;;;;;;-145.16;100.00;77542.03;645177;217;32318;-72
2022/10/05 08:18:10;;;;;;;0.28;0.28;;;;;;;-145.16;100.00;77546.05;645181;217;32364;-73
2022/10/05 08:24:11;;;;;;;1.50;0.70;;;;;;;-145.16;100.00;77577.27;645199;217;32473;-73
2022/10/05 08:30:12;;;;;;;0.50;0.50;;;;;;;-145.16;100.00;77494.70;645153;217;32452;-72
2022/10/05 08:36:13;;;;;;;0.37;0.37;;;;;;;-145.16;100.00;77439.34;645187;218;32398;-73
2022/10/05 08:42:13;;;;;;;0.37;0.37;;;;;;;-145.16;100.00;77460.48;645175;217;32376;-73
2022/10/05 08:45:22;;;;;;;0.10;0.10;;;;;;;-145.16;100.00;77419.20;635281;225;22683;-73
2022/10/05 08:51:09;;;;;;;0.40;0.40;;;;;;;-145.16;100.00;77435.31;645190;217;32359;-73
2022/10/05 08:57:13;;;;;;;0.10;0.10;;;;;;;-145.16;100.00;77398.06;653637;217;32387;-72
2022/10/05 09:03:17;;;;;;;0.10;0.10;;;;;;;-145.16;100.00;77377.92;645022;217;32314;-73
2022/10/05 09:09:20;;;;;;;0.10;0.10;;;;;;;-145.16;100.00;77383.97;653703;217;32594;-73
2022/10/05 09:15:25;;;;;;;0.32;0.32;;;;;;;-145.16;100.00;77454.44;653636;217;32390;-73
2022/10/05 09:21:41;;;;;;;2.00;1.50;;;;;;;-145.16;100.00;77450.41;645043;217;32368;-73
2022/10/05 09:27:41;;;;;;;0.13;0.13;;;;;;;-145.16;100.00;77324.57;653680;217;32364;-73
2022/10/05 09:33:44;;;;;;;0.80;0.80;;;;;;;-145.16;100.00;77345.72;645194;217;32374;-73
2022/10/05 09:36:49;;;;;;;0.30;0.30;;;;;;;-145.16;100.00;77316.52;635267;225;22691;-73
2022/10/05 09:42:36;;;;;;;0.70;0.70;;;;;;;-145.16;100.00;77293.36;645194;217;32340;-73
2022/10/05 09:48:44;;;;;;;2.35;1.60;;;;;;;-145.16;100.00;77359.80;645022;217;32405;-73
2022/10/05 09:51:59;;;;;;;1.55;1.45;;;;;;;-145.16;100.00;77260.14;635247;225;22687;-73
2022/10/05 09:57:45;;;;;;;1.00;0.90;;;;;;;-145.16;100.00;77247.05;644445;218;32605;-73
2022/10/05 10:03:50;;;;;;;1.20;1.10;;;;;;;-145.16;100.00;77145.38;653691;215;32371;-73
2022/10/05 10:09:55;;;;;;;1.67;1.50;;;;;;;-145.16;100.00;77204.78;643683;217;32519;-73
2022/10/05 10:15:59;;;;;;;2.67;1.25;;;;;;;-145.16;100.00;77125.25;639891;217;32577;-74
2022/10/05 10:22:03;;;;;;;0.45;0.40;;;;;;;-145.16;100.00;77060.83;645581;217;32486;-72
2022/10/05 10:25:08;;;;;;;0.70;0.70;;;;;;;-145.16;100.00;77075.92;639217;225;22708;-73
2022/10/05 10:30:52;;;;;;;6.53;2.15;;;;;;;-145.16;100.00;77084.98;644993;217;32344;-74
2022/10/05 10:37:09;;;;;;;0.20;0.20;;;;;;;-145.16;100.00;77123.23;644932;217;32397;-73
2022/10/05 10:43:14;;;;;;;2.58;1.27;;;;;;;-145.16;100.00;77143.37;644942;217;32405;-73
2022/10/05 10:49:15;;;;;;;1.08;0.98;;;;;;;-145.16;100.00;77145.38;642164;217;32503;-73
2022/10/05 10:55:21;;;;;;;0.20;0.20;;;;;;;-145.16;100.00;77091.02;630907;218;32493;-73
2022/10/05 11:01:26;;;;;;;1.90;0.82;;;;;;;-145.16;100.00;77092.03;645170;217;32389;-74
2022/10/05 11:07:33;;;;;;;0.20;0.20;;;;;;;-145.16;100.00;77047.73;645165;217;32632;-74
2022/10/05 11:13:36;;;;;;;1.10;0.68;;;;;;;-145.16;100.00;77042.70;645154;217;32357;-74
2022/10/05 11:20:02;;;;;;;0.95;0.55;;;;;;;-145.16;100.00;77057.80;653664;218;32332;-73
2022/10/05 11:26:04;;;;;;;0.60;0.60;;;;;;;-145.16;100.00;77101.09;643835;217;32344;-73
2022/10/05 11:29:25;;;;;;;0.80;0.80;;;;;;;-145.16;100.00;77128.27;635940;226;22691;-74
2022/10/05 11:35:48;;;;;;;0.65;0.25;;;;;;;-145.16;100.00;77053.78;645157;217;32308;-74
2022/10/05 11:41:52;;;;;;;0.88;0.88;;;;;;;-145.16;100.00;77047.73;633361;217;32565;-74
2022/10/05 11:48:01;;;;;;;0.40;0.40;;;;;;;-145.16;100.00;76974.26;653642;217;32363;-74
2022/10/05 11:54:04;;;;;;;0.40;0.40;;;;;;;-145.16;100.00;77020.56;653685;217;32338;-75
2022/10/05 12:00:05;;;;;;;1.50;1.20;;;;;;;-145.16;100.00;77020.56;645171;217;32372;-74
2022/10/05 12:06:11;;;;;;;0.43;0.43;;;;;;;-145.16;100.00;76885.67;645163;217;32374;-74
2022/10/05 12:12:14;;;;;;;0.80;0.80;;;;;;;-145.16;100.00;76955.13;645148;217;43193;-73
2022/10/05 12:18:17;;;;;;;2.10;1.00;;;;;;;-145.16;100.00;76963.19;645017;217;32338;-74
2022/10/05 12:24:17;;;;;;;0.50;0.50;;;;;;;-145.16;100.00;76915.88;653484;217;32344;-74
2022/10/05 12:30:18;;;;;;;1.20;1.10;;;;;;;-145.16;100.00;76915.88;653684;217;32378;-74
2022/10/05 12:36:18;;;;;;;0.80;0.80;;;;;;;-145.16;100.00;76954.13;643829;217;32372;-74
2022/10/05 12:42:19;;;;;;;0.90;0.90;;;;;;;-145.16;100.00;76891.72;645055;217;32335;-74
2022/10/05 12:48:22;;;;;;;0.50;0.50;;;;;;;-145.16;100.00;76914.87;645179;217;32321;-74
2022/10/05 12:54:24;;;;;;;0.73;0.73;;;;;;;-145.16;100.00;76892.72;644963;217;32356;-74
2022/10/05 13:00:27;;;;;;;0.65;0.65;;;;;;;-145.16;100.00;76908.83;642419;217;32494;-74
2022/10/05 13:06:27;;;;;;;0.90;0.62;;;;;;;-145.16;100.00;76923.92;642580;217;32772;-74
2022/10/05 13:12:28;;;;;;;1.15;1.05;;;;;;;-145.16;100.00;76873.59;644662;217;32370;-74
2022/10/05 13:18:29;;;;;;;0.88;0.88;;;;;;;-145.16;100.00;76880.64;645153;217;32374;-74
2022/10/05 13:24:29;;;;;;;0.95;0.95;;;;;;;-145.16;100.00;76895.74;652878;217;32435;-74
2022/10/05 13:30:29;;;;;;;0.93;0.93;;;;;;;-145.16;100.00;76846.42;645101;217;32376;-74
2022/10/05 13:36:30;;;;;;;1.60;0.65;;;;;;;-145.16;100.00;76814.21;653686;217;32414;-75
2022/10/05 13:42:35;;;;;;;1.50;1.30;;;;;;;-145.16;100.00;76873.59;641109;217;32311;-74
2022/10/05 13:48:35;;;;;;;0.40;0.40;;;;;;;-145.16;100.00;76822.27;645168;217;32428;-74
2022/10/05 13:54:35;;;;;;;1.10;0.90;;;;;;;-145.16;100.00;76893.73;653639;218;32353;-75
2022/10/05 14:00:37;;;;;;;6.70;0.75;;;;;;;-145.16;100.00;76880.64;644480;217;32337;-74
2022/10/05 14:06:37;;;;;;;0.77;0.77;;;;;;;-145.16;100.00;76856.48;642244;214;32346;-75
2022/10/05 14:12:41;;;;;;;3.58;1.17;;;;;;;-145.16;100.00;76896.75;644554;217;32374;-74
2022/10/05 14:18:44;;;;;;;0.60;0.60;;;;;;;-145.16;100.00;76944.06;645054;217;32399;-73
2022/10/05 14:24:44;;;;;;;0.55;0.55;;;;;;;-145.16;100.00;76918.89;645178;217;32440;-73
2022/10/05 14:30:44;;;;;;;0.40;0.40;;;;;;;-145.16;100.00;76931.98;644789;218;32350;-73
2022/10/05 14:36:45;;;;;;;0.40;0.40;;;;;;;-145.16;100.00;76926.95;644209;217;32404;-73
2022/10/05 14:42:46;;;;;;;0.70;0.70;;;;;;;-145.16;100.00;76997.41;645185;217;32321;-73
2022/10/05 14:48:46;;;;;;;1.33;1.05;;;;;;;-145.16;100.00;77004.45;645168;218;32415;-73
2022/10/05 14:54:46;;;;;;;0.28;0.28;;;;;;;-145.16;100.00;76976.27;645158;217;32378;-73
2022/10/05 15:00:47;;;;;;;0.93;0.85;;;;;;;-145.16;100.00;77071.90;645188;217;32377;-73
2022/10/05 15:06:49;;;;;;;0.68;0.68;;;;;;;-145.16;100.00;77069.88;653651;217;32392;-73
2022/10/05 15:12:55;;;;;;;1.45;1.35;;;;;;;-145.16;100.00;77088.00;645166;217;32322;-72
2022/10/05 15:18:56;;;;;;;2.47;1.08;;;;;;;-145.16;100.00;77144.38;645167;217;32368;-72
2022/10/05 15:25:02;;;;;;;0.70;0.70;;;;;;;-145.16;100.00;77151.42;645172;217;32382;-72
2022/10/05 15:31:06;;;;;;;0.65;0.65;;;;;;;-145.16;100.00;77179.61;653697;217;32318;-73
2022/10/05 15:37:07;;;;;;;0.70;0.70;;;;;;;-145.16;100.00;77168.53;653680;217;32362;-73
2022/10/05 15:39:53;;;;;;;0.75;0.75;;;;;;;;;;647454;222;22698;-72
2022/10/05 15:45:34;;;;;;;0.90;0.90;;;;;;;-145.16;100.00;77176.59;645158;217;32389;-72
2022/10/05 15:51:34;;;;;;;0.60;0.60;;;;;;;-145.16;100.00;77174.58;645168;217;32394;-72
2022/10/05 15:54:43;;;;;;;0.37;0.37;;;;;;;-145.16;100.00;77200.75;635252;225;22761;-72
2022/10/05 16:00:32;;;;;;;0.57;0.57;;;;;;;-145.16;100.00;77188.67;645178;217;32387;-72
2022/10/05 16:12:54;;;;;;;1.23;0.85;;;;;;;-145.16;100.00;77165.52;645174;217;32399;-71
2022/10/05 16:18:54;;;;;;;6.22;0.55;;;;;;;-145.16;100.00;77234.97;645181;218;32638;-71
2022/10/05 16:24:57;;;;;;;0.40;0.40;;;;;;;-145.16;100.00;77226.92;645022;218;32401;-75
2022/10/05 16:31:01;;;;;;;0.30;0.30;;;;;;;-145.16;100.00;77281.28;653687;217;43064;-74
2022/10/05 16:37:08;;;;;;;0.20;0.20;;;;;;;-145.16;100.00;77276.25;645029;218;32385;-74
2022/10/05 16:43:10;;;;;;;0.20;0.20;;;;;;;-145.16;100.00;77261.15;645066;217;32322;-74
2022/10/05 16:49:15;;;;;;;1.65;0.88;;;;;;;-145.16;100.00;77298.40;653713;217;32310;-74
2022/10/05 16:55:15;;;;;;;0.50;0.50;;;;;;;-145.16;100.00;77317.52;653695;217;32434;-74
2022/10/05 17:01:16;;;;;;;0.57;0.57;;;;;;;-145.16;100.00;77321.55;645159;217;32366;-73
2022/10/05 17:07:17;;;;;;;0.20;0.20;;;;;;;-145.16;100.00;77279.27;645155;217;32383;-73
2022/10/05 17:10:41;;;;;;;0.82;0.82;;;;;;;-145.16;100.00;77293.36;635256;225;22684;-73
2022/10/05 17:16:26;;;;;;;0.30;0.30;;;;;;;-145.16;100.00;77298.40;645183;217;32335;-74
2022/10/05 17:22:38;;;;;;;0.20;0.20;;;;;;;-145.16;100.00;77283.30;645179;217;32325;-74
2022/10/05 17:28:35;;;;;;;6.40;1.40;;;;;;;-145.16;100.00;77299.41;645182;217;32302;-74
2022/10/05 17:34:36;;;;;;;0.20;0.20;;;;;;;-145.16;100.00;77302.42;645191;218;32372;-74
2022/10/05 17:40:46;;;;;;;0.50;0.50;;;;;;;-145.16;100.00;77320.55;645148;217;32364;-74
2022/10/05 17:46:46;;;;;;;0.30;0.30;;;;;;;-145.16;100.00;77295.38;645171;217;32368;-74
2022/10/05 17:55:59;;;;;;;0.10;0.10;;;;;;;-145.16;100.00;77299.41;645174;217;32364;-74
2022/10/05 17:59:06;;;;;;;0.22;0.22;;;;;;;-145.16;100.00;77294.38;635265;225;22705;-73
2022/10/05 18:04:47;;;;;;;0.95;0.60;;;;;;;-145.16;100.00;77303.43;653701;217;32431;-74
2022/10/05 18:10:47;;;;;;;0.28;0.28;;;;;;;-145.16;100.00;77300.41;645187;217;32384;-74
2022/10/05 18:16:47;;;;;;;0.10;0.10;;;;;;;-145.16;100.00;77298.40;645179;217;32311;-74
2022/10/05 18:22:49;;;;;;;0.28;0.22;;;;;;;-145.16;100.00;77272.22;645160;218;43114;-74
2022/10/05 18:28:48;;;;;;;0.10;0.10;;;;;;;-145.16;100.00;77310.48;645166;218;43073;-74
2022/10/05 18:34:48;;;;;;;0.20;0.20;;;;;;;-145.16;100.00;77309.47;645180;217;43055;-74
2022/10/05 18:40:52;;;;;;;0.10;0.10;;;;;;;-145.16;100.00;77318.53;653649;217;32376;-74
2022/10/05 18:46:52;;;;;;;0.10;0.10;;;;;;;-145.16;100.00;77328.59;653704;217;32349;-74
2022/10/05 18:52:55;;;;;;;0.85;0.85;;;;;;;-145.16;100.00;77321.55;645188;217;32363;-74
2022/10/05 18:58:55;;;;;;;0.77;0.77;;;;;;;-145.16;100.00;77344.70;645181;218;32657;-74
2022/10/05 19:05:01;;;;;;;3.08;1.00;;;;;;;-145.16;100.00;77342.69;645176;217;32414;-74
2022/10/05 19:11:02;;;;;;;0.95;0.73;;;;;;;-145.16;100.00;77335.64;653701;218;32313;-74
2022/10/05 19:17:02;;;;;;;0.55;0.55;;;;;;;-145.16;100.00;77343.70;645184;217;32416;-74
2022/10/05 19:23:08;;;;;;;3.72;0.65;;;;;;;-145.16;100.00;77379.94;653666;218;32396;-74
2022/10/05 19:29:09;;;;;;;0.90;0.80;;;;;;;-145.16;100.00;77407.13;645173;217;43054;-74
2022/10/05 19:35:10;;;;;;;0.60;0.60;;;;;;;-145.16;100.00;77422.22;644571;218;32346;-74
2022/10/05 19:41:12;;;;;;;0.70;0.70;;;;;;;-145.16;100.00;77435.31;641417;217;32507;-74
2022/10/05 19:47:21;;;;;;;0.32;0.32;;;;;;;-145.16;100.00;77434.30;653687;218;32338;-74
2022/10/05 19:53:35;;;;;;;1.40;0.50;;;;;;;-145.16;100.00;77452.42;642364;217;32577;-74
2022/10/05 19:59:33;;;;;;;0.30;0.30;;;;;;;-145.16;100.00;77479.61;645179;217;32385;-74
2022/10/05 20:05:32;;;;;;;0.60;0.50;;;;;;;-145.16;100.00;77498.73;641516;217;32365;-74
2022/10/05 20:11:33;;;;;;;0.25;0.25;;;;;;;-145.16;100.00;77495.72;645150;217;32388;-74
2022/10/05 20:23:51;;;;;;;0.45;0.45;;;;;;;-145.16;100.00;77568.20;628412;217;32485;-73
2022/10/05 20:29:52;;;;;;;0.10;0.10;;;;;;;-145.16;100.00;77788.69;653683;217;32355;-74
2022/10/05 20:35:53;;;;;;;0.20;0.20;;;;;;;-145.16;100.00;77841.05;645132;217;32352;-74
2022/10/05 20:41:53;;;;;;;0.20;0.20;;;;;;;-145.16;100.00;77919.59;645168;217;32365;-74
2022/10/05 20:47:53;;;;;;;0.10;0.10;;;;;;;-145.16;100.00;77944.76;645181;217;32369;-74
2022/10/05 20:53:54;;;;;;;0.10;0.10;;;;;;;-145.16;100.00;78012.22;653694;217;32392;-73
2022/10/05 20:59:53;;;;;;;0.32;0.32;;;;;;;-145.16;100.00;78035.38;653681;217;32443;-74
2022/10/05 21:05:53;;;;;;;0.20;0.20;;;;;;;-145.16;100.00;78078.67;645187;217;32420;-73
2022/10/05 21:11:54;;;;;;;0.10;0.10;;;;;;;-145.16;100.00;78085.72;645194;217;32385;-73
2022/10/05 21:17:55;;;;;;;0.10;0.10;;;;;;;-145.16;100.00;78058.54;653692;217;32357;-73
2022/10/05 21:23:54;;;;;;;0.20;0.20;;;;;;;-145.16;100.00;78066.59;653702;218;32360;-73
2022/10/05 21:29:54;;;;;;;0.40;0.40;;;;;;;-145.16;100.00;78082.70;653709;217;43060;-73
2022/10/05 21:35:54;;;;;;;0.50;0.50;;;;;;;-145.16;100.00;78090.76;645176;217;32382;-73
2022/10/05 21:41:55;;;;;;;0.20;0.20;;;;;;;-145.16;100.00;78089.75;645155;218;43065;-73
2022/10/05 21:47:55;;;;;;;0.00;0.00;;;;;;;-145.16;100.00;78079.69;653675;217;32429;-73
2022/10/05 21:53:57;;;;;;;0.00;0.00;;;;;;;-145.16;100.00;78089.75;648841;218;32616;-73
2022/10/05 21:59:57;;;;;;;0.10;0.10;;;;;;;-145.16;100.00;78096.80;645184;217;32343;-72
2022/10/05 22:05:57;;;;;;;0.10;0.10;;;;;;;-145.16;100.00;78105.86;645187;217;32368;-73
2022/10/05 22:11:57;;;;;;;0.10;0.10;;;;;;;-145.16;100.00;78146.14;645189;217;34334;-73
2022/10/05 22:17:57;;;;;;;0.40;0.40;;;;;;;-145.16;100.00;78177.36;645178;217;43072;-73
2022/10/05 22:24:01;;;;;;;0.88;0.80;;;;;;;-145.16;100.00;78173.33;659256;217;31232;-73
2022/10/05 22:30:00;;;;;;;1.10;0.62;;;;;;;-145.16;100.00;78187.42;645247;217;37087;-73
2022/10/05 22:36:00;;;;;;;0.43;0.43;;;;;;;-145.16;100.00;78210.59;645166;217;33333;-73
2022/10/05 22:42:00;;;;;;;0.62;0.45;;;;;;;-145.16;100.00;78211.59;653698;217;32374;-73
2022/10/05 22:48:02;;;;;;;1.60;0.50;;;;;;;-145.16;100.00;78215.63;643795;217;32511;-73
2022/10/05 22:54:02;;;;;;;1.35;1.00;;;;;;;-145.16;100.00;78213.61;645185;217;32364;-73
2022/10/05 23:00:02;;;;;;;3.47;0.77;;;;;;;-145.16;100.00;78214.61;653711;217;32361;-73
2022/10/05 23:06:03;;;;;;;1.10;1.00;;;;;;;-145.16;100.00;78215.63;645222;218;35358;-73
2022/10/05 23:12:03;;;;;;;1.50;0.60;;;;;;;-145.16;100.00;78208.57;645178;218;32368;-73
2022/10/05 23:18:05;;;;;;;1.75;1.62;;;;;;;-145.16;100.00;78205.55;645179;217;43093;-73
2022/10/05 23:24:08;;;;;;;0.10;0.10;;;;;;;-145.16;100.00;78194.47;653676;217;32423;-73
2022/10/05 23:30:10;;;;;;;3.80;0.80;;;;;;;-145.16;100.00;78209.58;645031;217;33401;-73
2022/10/05 23:36:11;;;;;;;0.40;0.40;;;;;;;-145.16;100.00;78207.56;645183;217;43143;-73
2022/10/05 23:42:13;;;;;;;0.65;0.32;;;;;;;-145.16;100.00;78230.72;653685;217;32355;-73
2022/10/05 23:48:13;;;;;;;5.20;2.20;;;;;;;-145.16;100.00;78271.00;645055;217;32424;-73
2022/10/05 23:54:15;;;;;;;2.00;0.50;;;;;;;-145.16;100.00;78293.16;645031;217;32356;-73
